Time;durP1;ratioP1;P1;durP2;ratioP2;P2;SDS_P1;SDS_P2;PMS_P1;PMS_P2;Temp;Humidity;BMP_temperature;BMP_pressure;BME280_temperature;BME280_humidity;BME280_pressure;Samples;Min_cycle;Max_cycle;Signal;HPM_P1;HPM_P2
2024/02/08 00:00:13;;;;;;;8.25;5.20;;;;;;;4.39;70.46;94228.66;4990280;28;20045;-74
2024/02/08 00:02:39;;;;;;;7.47;5.43;;;;;;;4.53;69.59;94219.19;4968780;28;20481;-74
2024/02/08 00:05:06;;;;;;;8.45;5.57;;;;;;;4.28;70.67;94232.88;4990137;28;20030;-74
2024/02/08 00:07:32;;;;;;;7.60;4.90;;;;;;;4.33;70.90;94220.53;4989537;28;20085;-74
2024/02/08 00:09:57;;;;;;;10.02;5.07;;;;;;;4.38;71.14;94242.44;4975048;28;20086;-74
2024/02/08 00:12:24;;;;;;;9.73;4.60;;;;;;;4.14;70.51;94221.78;4989367;28;20551;-74
2024/02/08 00:14:49;;;;;;;8.98;5.00;;;;;;;4.00;71.77;94239.88;4991296;28;20046;-75
2024/02/08 00:17:21;;;;;;;7.18;4.97;;;;;;;4.17;71.79;94243.88;4990711;28;20113;-75
2024/02/08 00:19:50;;;;;;;12.27;7.88;;;;;;;4.05;71.08;94206.97;4973813;28;20130;-75
2024/02/08 00:22:15;;;;;;;13.25;7.05;;;;;;;4.04;72.21;94251.59;4990552;28;20986;-75
2024/02/08 00:24:41;;;;;;;7.00;5.28;;;;;;;4.24;70.84;94222.00;4973048;28;20031;-75
2024/02/08 00:27:06;;;;;;;10.43;5.25;;;;;;;4.08;70.21;94231.66;4989996;28;20030;-75
2024/02/08 00:29:32;;;;;;;10.18;6.10;;;;;;;4.03;70.98;94247.38;4990520;28;20038;-74
2024/02/08 00:31:59;;;;;;;11.27;7.70;;;;;;;4.21;71.28;94242.78;4990108;28;20035;-75
2024/02/08 00:34:25;;;;;;;9.80;5.63;;;;;;;4.06;72.33;94223.22;4994708;28;20062;-74
2024/02/08 00:36:51;;;;;;;14.35;7.70;;;;;;;3.96;72.57;94239.25;4992417;28;20029;-75
2024/02/08 00:39:16;;;;;;;11.13;7.00;;;;;;;4.04;71.81;94246.47;5012426;28;20041;-75
2024/02/08 00:41:48;;;;;;;11.07;6.68;;;;;;;4.04;71.65;94238.75;5011930;28;20025;-75
2024/02/08 00:44:13;;;;;;;10.98;7.13;;;;;;;3.92;71.97;94235.22;4994145;28;20492;-75
2024/02/08 00:46:39;;;;;;;10.98;6.90;;;;;;;3.73;73.02;94229.66;4993840;28;20040;-75
2024/02/08 00:49:04;;;;;;;7.70;5.57;;;;;;;3.98;72.30;94221.16;5012534;28;20073;-75
2024/02/08 00:51:31;;;;;;;9.68;5.75;;;;;;;3.89;72.61;94243.13;5031325;28;20037;-75
2024/02/08 00:53:59;;;;;;;8.35;5.18;;;;;;;4.02;72.42;94249.13;5008737;28;20436;-75
2024/02/08 00:56:25;;;;;;;7.88;5.05;;;;;;;3.85;73.18;94213.44;5031152;28;20423;-75
2024/02/08 00:58:50;;;;;;;7.60;4.82;;;;;;;3.88;73.00;94246.66;4995252;28;20045;-75
2024/02/08 01:01:17;;;;;;;10.32;6.93;;;;;;;4.12;72.22;94244.19;5030157;28;20026;-75
2024/02/08 01:03:43;;;;;;;7.78;5.78;;;;;;;4.08;72.41;94221.38;4992629;28;20053;-75
2024/02/08 01:06:08;;;;;;;10.52;5.90;;;;;;;3.96;72.65;94228.16;4996972;28;20131;-75
2024/02/08 01:08:34;;;;;;;12.38;7.50;;;;;;;4.11;72.06;94254.59;5030271;28;20087;-75
2024/02/08 01:11:00;;;;;;;11.07;7.22;;;;;;;4.11;71.32;94245.13;5011493;28;20043;-75
2024/02/08 01:13:27;;;;;;;8.80;6.20;;;;;;;3.89;72.27;94221.75;4994120;28;20029;-76
2024/02/08 01:15:53;;;;;;;11.00;6.00;;;;;;;4.15;72.01;94215.72;4995667;28;20120;-75
2024/02/08 01:18:20;;;;;;;9.02;6.00;;;;;;;4.28;71.31;94238.84;4996767;28;20104;-75
2024/02/08 01:20:46;;;;;;;11.80;6.57;;;;;;;4.38;71.31;94211.59;4994706;28;20041;-75
2024/02/08 01:23:12;;;;;;;9.38;5.40;;;;;;;4.53;70.49;94191.69;4977041;28;20031;-75
2024/02/08 01:25:41;;;;;;;8.82;5.35;;;;;;;4.66;70.15;94232.84;4980478;28;20080;-75
2024/02/08 01:28:07;;;;;;;11.52;6.55;;;;;;;4.79;69.73;94232.81;5012266;28;20487;-75
2024/02/08 01:30:35;;;;;;;9.43;5.88;;;;;;;4.75;69.74;94218.53;4995615;28;20034;-75
2024/02/08 01:33:01;;;;;;;8.75;5.30;;;;;;;4.85;69.53;94215.22;5005336;28;20388;-75
2024/02/08 01:35:26;;;;;;;8.38;5.20;;;;;;;4.87;69.41;94225.38;5009199;28;20049;-76
2024/02/08 01:37:53;;;;;;;9.63;4.85;;;;;;;4.97;68.80;94210.94;4974361;28;20038;-75
2024/02/08 01:40:18;;;;;;;6.15;4.45;;;;;;;5.07;68.33;94211.09;5010770;28;20030;-75
2024/02/08 01:42:44;;;;;;;9.23;4.50;;;;;;;4.93;68.63;94218.06;5007306;28;20037;-75
2024/02/08 01:45:32;;;;;;;8.65;5.20;;;;;;;4.74;69.15;94225.44;4974385;28;20037;-75
2024/02/08 01:48:03;;;;;;;6.40;4.22;;;;;;;4.87;69.06;94215.91;5001053;28;20033;-75
2024/02/08 01:50:35;;;;;;;5.78;4.00;;;;;;;4.81;68.73;94212.94;5012760;28;20109;-75
2024/02/08 01:53:01;;;;;;;6.65;3.80;;;;;;;4.70;68.69;94208.53;4994216;28;20480;-76
2024/02/08 01:55:32;;;;;;;5.25;4.03;;;;;;;4.72;68.72;94206.69;4979339;28;20037;-75
2024/02/08 01:58:02;;;;;;;8.80;4.47;;;;;;;4.49;69.66;94205.72;4997062;28;20029;-76
2024/02/08 02:00:29;;;;;;;6.50;4.05;;;;;;;4.41;70.27;94216.53;4995761;28;20072;-76
2024/02/08 02:02:57;;;;;;;8.55;6.13;;;;;;;4.58;69.81;94207.66;5009921;28;20109;-76
2024/02/08 02:05:25;;;;;;;8.75;5.80;;;;;;;4.56;69.21;94194.06;4996027;28;20480;-75
2024/02/08 02:07:50;;;;;;;10.80;6.38;;;;;;;4.41;69.67;94211.38;4979846;28;20587;-76
2024/02/08 02:10:16;;;;;;;7.43;4.55;;;;;;;4.50;69.77;94209.09;5012912;28;20087;-75
2024/02/08 02:12:45;;;;;;;6.38;4.35;;;;;;;4.19;70.50;94200.91;5008505;28;20068;-75
2024/02/08 02:15:12;;;;;;;8.40;4.38;;;;;;;4.12;71.18;94204.81;4992262;28;20034;-76
2024/02/08 02:17:43;;;;;;;7.60;4.10;;;;;;;4.22;70.73;94190.41;4986770;28;20025;-75
2024/02/08 02:20:12;;;;;;;6.32;4.32;;;;;;;4.14;70.97;94206.34;5014173;28;20042;-76
2024/02/08 02:22:43;;;;;;;9.35;5.85;;;;;;;4.32;70.66;94198.31;4992588;28;20068;-75
2024/02/08 02:25:09;;;;;;;5.22;3.80;;;;;;;4.14;70.41;94206.34;4996724;28;20104;-75
2024/02/08 02:27:39;;;;;;;7.18;4.03;;;;;;;4.14;70.19;94203.78;4996322;28;20075;-76
2024/02/08 02:30:15;;;;;;;6.00;3.97;;;;;;;3.89;70.62;94209.72;5011592;28;20077;-75
2024/02/08 02:32:44;;;;;;;6.97;3.80;;;;;;;3.95;71.07;94206.75;4993574;28;20033;-75
2024/02/08 02:35:10;;;;;;;5.28;3.58;;;;;;;3.99;71.19;94202.25;5011037;28;20046;-75
2024/02/08 02:37:35;;;;;;;5.03;3.42;;;;;;;4.00;71.16;94207.28;4996166;28;20499;-76
2024/02/08 02:40:00;;;;;;;5.28;3.65;;;;;;;3.70;71.94;94199.03;4994654;28;20046;-76
2024/02/08 02:42:27;;;;;;;6.13;4.10;;;;;;;3.83;71.73;94187.00;5000497;28;20044;-76
2024/02/08 02:44:52;;;;;;;5.35;3.78;;;;;;;4.07;70.85;94207.69;5011911;28;20030;-75
2024/02/08 02:47:25;;;;;;;4.70;3.20;;;;;;;4.12;69.88;94207.38;5011630;28;20392;-75
2024/02/08 02:49:56;;;;;;;6.88;3.92;;;;;;;3.84;70.48;94204.06;5012479;28;20042;-75
2024/02/08 02:52:21;;;;;;;;;;;;;;;3.91;70.59;94196.78;5007469;28;20037;-75
2024/02/08 02:54:47;;;;;;;7.47;3.58;;;;;;;3.57;71.63;94197.25;5012093;28;19921;-75
2024/02/08 02:57:14;;;;;;;7.18;4.75;;;;;;;3.61;72.47;94187.59;4994735;28;20084;-75
2024/02/08 02:59:42;;;;;;;5.38;3.72;;;;;;;3.65;72.26;94193.34;5007285;28;20169;-75
2024/02/08 03:02:08;;;;;;;5.18;3.25;;;;;;;3.71;71.60;94198.13;4995690;28;20064;-75
2024/02/08 03:04:34;;;;;;;5.75;3.42;;;;;;;3.52;71.40;94178.75;4994295;28;20411;-75
2024/02/08 03:07:00;;;;;;;5.75;3.75;;;;;;;3.30;72.78;94175.94;5011680;28;20057;-75
2024/02/08 03:09:30;;;;;;;6.28;4.05;;;;;;;3.44;73.15;94190.44;4993950;28;20065;-75
2024/02/08 03:11:59;;;;;;;6.43;3.67;;;;;;;3.45;73.59;94198.03;5011393;28;20058;-75
2024/02/08 03:14:25;;;;;;;6.00;3.90;;;;;;;3.47;72.47;94193.63;4988576;28;20027;-76
2024/02/08 03:16:51;;;;;;;6.05;3.60;;;;;;;3.27;72.96;94201.81;4993545;28;20034;-75
2024/02/08 03:19:17;;;;;;;6.57;3.72;;;;;;;3.26;73.28;94185.59;5009183;28;20116;-75
2024/02/08 03:21:45;;;;;;;6.60;3.80;;;;;;;3.30;73.51;94188.78;4993572;28;20152;-75
2024/02/08 03:24:10;;;;;;;5.22;3.53;;;;;;;3.22;73.50;94162.78;5009114;28;20030;-75
2024/02/08 03:26:40;;;;;;;5.53;3.75;;;;;;;3.38;73.39;94167.75;4993095;28;20028;-75
2024/02/08 03:29:12;;;;;;;7.20;3.80;;;;;;;3.16;73.68;94152.91;4990615;28;20089;-75
2024/02/08 03:31:47;;;;;;;6.28;4.15;;;;;;;3.14;73.71;94202.56;5002863;28;20088;-75
2024/02/08 03:34:19;;;;;;;8.98;5.40;;;;;;;2.87;73.08;94170.94;5009083;28;20109;-75
2024/02/08 03:36:49;;;;;;;8.25;5.95;;;;;;;2.94;74.23;94167.09;4996750;28;20029;-75
2024/02/08 03:39:24;;;;;;;10.02;4.80;;;;;;;2.95;74.54;94166.16;4995023;28;20133;-75
2024/02/08 03:41:51;;;;;;;7.75;5.07;;;;;;;2.77;74.46;94159.66;5028739;28;20079;-75
2024/02/08 03:44:17;;;;;;;5.53;3.78;;;;;;;3.06;73.52;94170.63;5023258;28;20410;-75
2024/02/08 03:46:46;;;;;;;7.93;4.40;;;;;;;3.02;74.36;94179.44;5013055;28;20023;-75
2024/02/08 03:49:12;;;;;;;9.93;3.70;;;;;;;3.06;74.11;94179.13;5013155;28;20030;-75
2024/02/08 03:51:38;;;;;;;8.52;4.13;;;;;;;3.18;72.62;94161.34;4988953;28;20084;-75
2024/02/08 03:54:03;;;;;;;5.85;3.97;;;;;;;2.88;73.75;94177.75;5025251;28;20041;-75
2024/02/08 03:56:36;;;;;;;6.45;4.13;;;;;;;2.82;74.35;94189.22;5032411;28;20522;-75
2024/02/08 03:59:11;;;;;;;11.23;5.03;;;;;;;3.14;74.09;94184.59;5014010;28;20025;-75
2024/02/08 04:01:37;;;;;;;7.07;4.30;;;;;;;2.76;74.75;94178.50;5000224;28;20104;-75
2024/02/08 04:04:12;;;;;;;5.45;3.70;;;;;;;2.90;74.41;94176.75;5004392;28;20136;-74
2024/02/08 04:06:49;;;;;;;6.03;3.92;;;;;;;2.90;73.81;94187.00;5012715;28;20031;-74
2024/02/08 04:09:33;;;;;;;8.30;5.38;;;;;;;2.57;74.48;94207.06;5008344;28;20044;-73
2024/02/08 04:55:50;;;;;;;9.23;5.55;;;;;;;2.74;76.20;94200.88;5020060;28;20040;-74
2024/02/08 04:58:15;;;;;;;8.13;5.00;;;;;;;2.68;75.97;94133.66;4971499;28;20034;-73
2024/02/08 05:00:45;;;;;;;10.80;4.55;;;;;;;2.82;75.50;94188.41;5012690;28;20040;-73
2024/02/08 05:03:10;;;;;;;7.80;5.80;;;;;;;2.84;76.10;94186.53;4995436;28;20038;-74
2024/02/08 05:05:43;;;;;;;9.80;6.43;;;;;;;2.69;75.79;94158.38;5019762;28;20084;-75
2024/02/08 05:08:11;;;;;;;12.90;8.20;;;;;;;2.76;76.04;94194.75;4989580;28;20022;-75
2024/02/08 05:10:37;;;;;;;17.92;9.60;;;;;;;2.91;75.20;94198.09;4962459;28;20464;-75
2024/02/08 05:13:04;;;;;;;11.95;7.30;;;;;;;2.86;74.99;94192.41;5000555;28;20091;-75
2024/02/08 05:15:30;;;;;;;12.48;6.88;;;;;;;2.94;74.52;94215.84;4995180;28;20037;-75
2024/02/08 05:17:56;;;;;;;6.97;5.30;;;;;;;2.88;73.69;94191.41;5028987;28;20451;-75
2024/02/08 05:20:21;;;;;;;7.40;5.07;;;;;;;2.81;74.29;94202.13;4995007;28;20120;-75
2024/02/08 05:22:48;;;;;;;12.85;7.43;;;;;;;2.79;73.77;94191.16;4976349;28;20033;-75
2024/02/08 05:25:14;;;;;;;10.20;5.43;;;;;;;3.01;73.70;94209.41;5011160;28;20583;-75
2024/02/08 05:27:39;;;;;;;6.00;4.00;;;;;;;2.59;73.99;94194.94;4990157;28;20043;-74
2024/02/08 05:30:05;;;;;;;7.32;4.00;;;;;;;2.67;74.25;94203.81;5007171;28;20030;-74
2024/02/08 05:32:33;;;;;;;6.97;3.83;;;;;;;2.41;75.39;94209.72;4994757;28;20503;-75
2024/02/08 05:35:02;;;;;;;6.88;4.05;;;;;;;2.37;76.15;94203.13;4979402;28;20045;-75
2024/02/08 05:37:29;;;;;;;8.05;4.47;;;;;;;2.62;75.48;94217.84;5012362;28;20105;-74
2024/02/08 05:39:55;;;;;;;6.57;4.88;;;;;;;2.61;74.77;94211.06;4995353;28;20041;-75
2024/02/08 05:42:24;;;;;;;7.28;4.70;;;;;;;2.55;74.61;94202.00;5002729;28;20033;-75
2024/02/08 05:44:50;;;;;;;6.93;4.00;;;;;;;2.26;76.33;94200.38;5022663;28;20107;-75
2024/02/08 05:47:15;;;;;;;6.35;4.13;;;;;;;2.51;75.66;94200.56;5011497;28;20484;-75
2024/02/08 05:49:52;;;;;;;6.13;4.13;;;;;;;2.58;75.25;94214.63;4991976;28;20495;-75
2024/02/08 05:52:17;;;;;;;6.25;4.15;;;;;;;2.63;75.51;94214.34;5000800;28;20488;-75
2024/02/08 05:54:45;;;;;;;5.20;4.05;;;;;;;2.43;75.71;94213.84;5012065;28;20067;-74
2024/02/08 05:57:14;;;;;;;7.75;4.15;;;;;;;2.82;75.12;94237.97;5011033;28;20030;-75
2024/02/08 05:59:40;;;;;;;7.00;3.95;;;;;;;2.73;74.93;94238.53;4990619;28;20133;-74
2024/02/08 06:02:14;;;;;;;5.57;3.80;;;;;;;2.63;74.54;94211.78;4991684;28;20109;-74
2024/02/08 06:04:49;;;;;;;7.18;4.20;;;;;;;2.55;76.10;94237.09;4994063;28;20030;-74
2024/02/08 06:07:17;;;;;;;7.47;3.47;;;;;;;2.57;76.27;94232.69;4998120;28;20021;-74
2024/02/08 06:12:16;;;;;;;6.78;3.72;;;;;;;2.57;75.31;94225.81;5027766;28;20468;-74
2024/02/08 06:14:42;;;;;;;6.95;3.85;;;;;;;2.54;75.90;94241.38;4978755;28;20170;-74
2024/02/08 06:17:11;;;;;;;6.40;4.00;;;;;;;2.62;76.09;94248.63;4996206;28;20032;-75
2024/02/08 06:19:52;;;;;;;7.72;4.03;;;;;;;2.67;76.13;94228.63;4992426;28;20504;-75
2024/02/08 06:22:22;;;;;;;8.38;4.03;;;;;;;2.94;75.26;94236.38;5010758;28;20060;-75
2024/02/08 06:24:48;;;;;;;6.07;3.30;;;;;;;2.62;74.75;94182.75;5005944;28;20044;-74
2024/02/08 06:27:13;;;;;;;7.82;3.92;;;;;;;3.11;74.77;94238.69;5010408;28;20029;-74
2024/02/08 06:29:42;;;;;;;5.55;3.58;;;;;;;3.24;73.60;94245.66;5006714;28;20076;-73
2024/02/08 06:32:34;;;;;;;6.15;3.85;;;;;;;3.13;73.33;94223.22;5004104;28;20037;-75
2024/02/08 06:35:07;;;;;;;6.35;3.63;;;;;;;3.32;73.48;94246.00;4995310;28;20051;-76
2024/02/08 06:37:44;;;;;;;5.70;3.80;;;;;;;3.38;73.01;94252.47;4971159;28;20033;-73
2024/02/08 06:40:36;;;;;;;5.60;3.47;;;;;;;3.41;72.66;94234.31;4990371;28;20034;-73
2024/02/08 07:37:38;;;;;;;8.38;6.38;;;;;;;7.45;60.58;94243.16;4998639;28;20101;-73
2024/02/08 07:40:34;;;;;;;13.70;8.88;;;;;;;7.52;58.97;94227.97;4995237;28;20068;-72
2024/02/08 07:45:47;;;;;;;13.93;8.45;;;;;;;10.67;51.78;94241.50;4997577;28;20052;-72
2024/02/08 07:48:13;;;;;;;16.48;11.38;;;;;;;12.35;47.57;94230.75;4995338;28;20084;-73
2024/02/08 07:50:45;;;;;;;19.45;12.82;;;;;;;13.47;43.47;94237.72;4995340;28;20105;-73
2024/02/08 07:53:19;;;;;;;29.17;15.70;;;;;;;14.71;41.44;94229.84;5012668;28;20242;-73
2024/02/08 07:55:58;;;;;;;14.27;8.93;;;;;;;15.88;39.76;94238.72;4980700;28;20042;-73
2024/02/08 07:58:29;;;;;;;23.45;16.17;;;;;;;15.78;37.95;94219.78;4996860;28;20080;-73
2024/02/08 08:00:56;;;;;;;19.50;13.60;;;;;;;15.08;39.62;94218.78;4979696;28;20029;-73
2024/02/08 08:03:24;;;;;;;24.50;17.67;;;;;;;16.96;36.51;94225.38;5012387;28;20072;-73
2024/02/08 08:05:56;;;;;;;23.73;15.40;;;;;;;18.16;34.49;94224.19;4978729;28;20037;-72
2024/02/08 08:08:24;;;;;;;22.45;15.13;;;;;;;18.21;32.65;94227.09;4980451;28;20129;-73
2024/02/08 08:10:56;;;;;;;20.25;15.00;;;;;;;18.99;32.98;94235.03;4995242;28;20404;-72
2024/02/08 08:13:50;;;;;;;19.80;13.68;;;;;;;18.96;31.93;94227.50;4962538;28;20025;-73
2024/02/08 08:17:08;;;;;;;21.25;14.32;;;;;;;17.58;34.84;94232.06;4997316;28;20504;-72
2024/02/08 08:19:08;;;;;;;22.17;16.10;;;;;;;16.86;35.53;94216.97;4994325;28;20519;-73
2024/02/08 08:24:26;;;;;;;22.10;15.57;;;;;;;14.82;39.78;94220.81;4983523;28;20117;-73
2024/02/08 08:27:07;;;;;;;25.60;16.45;;;;;;;14.30;41.14;94216.78;4962951;28;20033;-72
2024/02/08 08:29:42;;;;;;;24.20;15.77;;;;;;;14.19;41.50;94224.94;5012040;28;20022;-73
2024/02/08 08:33:06;;;;;;;22.73;15.48;;;;;;;13.11;42.95;94190.94;5011917;28;20042;-72
2024/02/08 08:37:39;;;;;;;20.75;15.55;;;;;;;12.37;47.55;94216.63;4997366;28;20064;-73
2024/02/08 08:40:25;;;;;;;24.70;14.88;;;;;;;12.05;46.16;94212.78;4978225;28;20041;-72
2024/02/08 08:42:50;;;;;;;25.15;15.23;;;;;;;11.22;48.83;94217.31;4983215;28;20088;-73
2024/02/08 08:45:19;;;;;;;26.52;14.60;;;;;;;11.13;49.55;94226.81;4994227;28;20026;-73
2024/02/08 08:47:45;;;;;;;23.50;14.25;;;;;;;11.40;48.81;94191.38;4977808;28;20106;-72
2024/02/08 08:50:19;;;;;;;24.50;13.75;;;;;;;11.37;47.73;94205.47;4978000;28;20025;-73
2024/02/08 08:52:49;;;;;;;24.67;12.82;;;;;;;11.38;48.48;94216.69;4980350;28;20037;-73
2024/02/08 08:55:19;;;;;;;24.27;14.85;;;;;;;11.46;48.95;94210.75;4995585;28;20021;-72
2024/02/08 08:57:47;;;;;;;17.13;10.85;;;;;;;11.42;47.72;94215.41;5025546;28;20108;-73
2024/02/08 09:00:20;;;;;;;17.27;11.65;;;;;;;11.25;48.37;94221.41;4978369;28;20036;-73
2024/02/08 09:02:50;;;;;;;20.67;11.73;;;;;;;11.54;47.05;94224.66;5006265;28;20033;-73
2024/02/08 09:05:20;;;;;;;21.98;13.25;;;;;;;11.60;48.10;94229.28;4997681;28;20120;-72
2024/02/08 09:07:46;;;;;;;21.38;13.63;;;;;;;11.47;48.62;94214.97;5013976;28;20427;-73
2024/02/08 09:10:14;;;;;;;15.30;8.63;;;;;;;11.63;46.60;94217.75;4997158;28;20025;-73
2024/02/08 09:12:40;;;;;;;22.02;12.80;;;;;;;11.50;47.82;94192.09;5031007;28;20117;-73
2024/02/08 09:15:26;;;;;;;18.95;12.98;;;;;;;11.14;48.95;94196.41;4999354;28;20054;-73
2024/02/08 09:17:51;;;;;;;33.33;21.83;;;;;;;11.40;49.22;94225.16;5011186;28;20061;-73
2024/02/08 09:20:20;;;;;;;21.90;14.77;;;;;;;11.13;49.83;94215.59;4993627;28;20026;-73
2024/02/08 09:22:49;;;;;;;44.75;29.42;;;;;;;10.80;51.34;94220.38;4994297;28;20126;-73
2024/02/08 09:25:15;;;;;;;56.85;34.75;;;;;;;10.90;51.80;94212.56;4993529;28;20121;-73
2024/02/08 09:27:47;;;;;;;34.78;21.27;;;;;;;10.74;52.41;94208.78;5008963;28;20418;-72
2024/02/08 09:30:14;;;;;;;77.30;39.08;;;;;;;10.69;52.73;94203.19;5010862;28;20104;-73
2024/02/08 09:32:46;;;;;;;129.75;56.35;;;;;;;10.71;52.33;94187.47;5018367;28;20044;-73
2024/02/08 09:35:11;;;;;;;104.15;47.25;;;;;;;10.89;51.46;94203.97;5013848;28;20058;-73
2024/02/08 09:37:45;;;;;;;67.85;41.50;;;;;;;10.70;50.07;94191.03;5012624;28;20034;-72
2024/02/08 09:40:20;;;;;;;33.55;18.90;;;;;;;10.76;50.50;94197.44;4981769;28;20044;-72
2024/02/08 09:42:54;;;;;;;30.45;18.08;;;;;;;10.85;50.49;94201.78;4998311;28;20500;-73
2024/02/08 09:48:08;;;;;;;20.20;10.85;;;;;;;11.06;48.90;94206.72;4995049;28;20355;-72
2024/02/08 09:50:36;;;;;;;14.48;10.00;;;;;;;10.98;48.71;94199.66;4993711;28;20554;-72
2024/02/08 09:53:19;;;;;;;17.50;10.50;;;;;;;11.09;49.14;94199.47;5010041;28;20034;-73
2024/02/08 09:55:58;;;;;;;13.52;8.27;;;;;;;11.01;47.22;94157.00;4999336;28;20018;-73
2024/02/08 09:58:38;;;;;;;16.88;7.82;;;;;;;11.16;46.86;94194.50;5013093;28;20037;-73
2024/02/08 10:01:24;;;;;;;14.13;7.72;;;;;;;10.94;47.71;94185.31;4996559;28;20368;-73
2024/02/08 10:03:50;;;;;;;11.35;6.97;;;;;;;11.41;45.22;94180.78;4996408;28;20042;-78
2024/02/08 10:06:38;;;;;;;11.80;8.00;;;;;;;11.20;46.70;94169.88;4994220;28;20500;-76
2024/02/08 10:09:33;;;;;;;10.63;7.38;;;;;;;11.47;45.65;94195.00;4981156;28;20042;-75
2024/02/08 10:11:57;;;;;;;13.45;7.45;;;;;;;11.35;45.93;94186.59;4999427;28;20582;-76
2024/02/08 10:14:25;;;;;;;12.90;6.90;;;;;;;11.30;45.67;94178.41;4997991;28;20121;-76
2024/02/08 10:16:59;;;;;;;12.70;7.18;;;;;;;11.24;46.05;94176.41;5033474;28;20048;-76
2024/02/08 10:19:47;;;;;;;13.02;7.00;;;;;;;11.47;45.18;94183.78;5016841;28;20033;-76
2024/02/08 10:22:26;;;;;;;9.57;6.07;;;;;;;11.43;44.83;94177.25;5019597;28;20113;-76
2024/02/08 10:27:20;;;;;;;12.27;7.47;;;;;;;11.35;45.16;94170.97;5000499;28;20041;-76
2024/02/08 10:29:52;;;;;;;10.88;7.30;;;;;;;11.39;45.75;94166.31;5034125;28;20030;-76
2024/02/08 10:32:20;;;;;;;17.25;8.35;;;;;;;11.42;45.43;94163.41;5034010;28;20157;-76
2024/02/08 10:34:46;;;;;;;16.02;8.43;;;;;;;11.56;44.90;94157.72;5033757;28;20053;-76
2024/02/08 10:37:46;;;;;;;11.77;6.95;;;;;;;11.55;44.45;94116.22;5016346;28;20632;-75
2024/02/08 10:40:23;;;;;;;12.40;6.00;;;;;;;12.18;42.99;94144.72;5005521;28;20451;-75
2024/02/08 10:42:45;;;;;;;17.77;7.65;;;;;;;11.87;43.26;94130.47;5005192;28;20037;-75
2024/02/08 10:45:14;;;;;;;13.15;8.15;;;;;;;12.09;43.12;94130.03;4999808;28;20033;-76
2024/02/08 10:47:40;;;;;;;11.18;6.00;;;;;;;12.17;41.82;94143.06;5000751;28;20041;-75
2024/02/08 10:50:19;;;;;;;11.07;6.90;;;;;;;12.48;41.81;94148.63;5015927;28;20034;-75
2024/02/08 10:52:51;;;;;;;12.65;6.55;;;;;;;12.55;41.33;94141.00;5017701;28;20033;-75
2024/02/08 10:55:30;;;;;;;12.93;6.72;;;;;;;12.52;41.19;94134.31;5016272;28;20510;-75
2024/02/08 11:06:00;;;;;;;11.98;7.55;;;;;;;12.79;41.78;94132.50;5018483;28;20044;-76
2024/02/08 11:08:36;;;;;;;15.60;7.10;;;;;;;12.92;41.36;94114.59;5002599;28;20077;-76
2024/02/08 11:11:09;;;;;;;13.23;7.15;;;;;;;12.67;40.91;94116.31;5033059;28;20476;-76
2024/02/08 11:13:37;;;;;;;12.55;7.75;;;;;;;12.63;41.71;94101.16;5000061;28;20466;-76
2024/02/08 11:16:19;;;;;;;12.32;7.95;;;;;;;12.82;41.35;94111.34;5015881;28;20120;-75
2024/02/08 11:18:47;;;;;;;13.35;7.95;;;;;;;13.17;40.59;94119.91;5002713;28;20041;-75
2024/02/08 11:21:18;;;;;;;13.88;7.72;;;;;;;13.40;39.88;94109.72;4999101;28;20461;-75
2024/02/08 11:23:53;;;;;;;17.58;8.27;;;;;;;13.22;40.10;94085.53;4983798;28;20084;-75
2024/02/08 11:26:19;;;;;;;12.57;8.27;;;;;;;13.58;39.76;94099.13;4998948;28;20029;-75
2024/02/08 11:28:44;;;;;;;17.65;7.70;;;;;;;13.77;40.06;94098.78;4999075;28;20036;-75
2024/02/08 11:31:16;;;;;;;12.98;8.07;;;;;;;13.74;39.06;94098.31;5015124;28;20036;-75
2024/02/08 11:33:42;;;;;;;16.20;8.20;;;;;;;13.37;40.65;94087.38;5032802;28;20033;-75
2024/02/08 11:36:16;;;;;;;12.23;8.25;;;;;;;13.49;41.06;94097.50;5015085;28;20060;-75
2024/02/08 11:38:46;;;;;;;11.00;6.40;;;;;;;13.64;38.50;94086.22;5001148;28;20037;-76
2024/02/08 11:41:18;;;;;;;10.40;6.00;;;;;;;13.56;37.70;94091.44;5015548;28;20128;-75
2024/02/08 11:43:51;;;;;;;11.05;6.65;;;;;;;13.77;37.85;94085.75;5000023;28;20140;-75
2024/02/08 11:46:21;;;;;;;8.05;6.22;;;;;;;14.16;37.40;94077.22;5016009;28;20033;-76
2024/02/08 11:48:47;;;;;;;13.93;6.93;;;;;;;14.11;36.82;94058.59;5015432;28;20171;-75
2024/02/08 11:51:14;;;;;;;10.95;5.18;;;;;;;14.07;36.57;94065.16;5032355;28;20564;-75
2024/02/08 11:53:39;;;;;;;9.00;5.10;;;;;;;14.09;35.67;94064.00;4998694;28;20443;-75
2024/02/08 11:56:09;;;;;;;10.95;5.57;;;;;;;14.37;35.38;94065.41;5014867;28;20113;-75
2024/02/08 11:58:41;;;;;;;9.63;5.47;;;;;;;14.11;35.58;94056.00;4999379;28;20060;-75
2024/02/08 12:01:07;;;;;;;13.05;5.93;;;;;;;14.10;36.13;94043.94;5015795;28;20029;-75
2024/02/08 12:03:33;;;;;;;10.52;5.80;;;;;;;14.14;36.18;94060.88;4998444;28;20033;-75
2024/02/08 12:05:58;;;;;;;9.13;5.75;;;;;;;14.09;36.15;94042.28;5032704;28;20040;-76
2024/02/08 12:08:24;;;;;;;9.32;5.57;;;;;;;14.05;36.32;94047.03;4982076;28;20042;-75
2024/02/08 12:10:50;;;;;;;13.15;5.10;;;;;;;14.31;35.96;94049.41;4998375;28;20453;-75
2024/02/08 12:13:38;;;;;;;9.35;4.18;;;;;;;14.61;34.98;94047.06;5014505;28;20029;-76
2024/02/08 12:16:04;;;;;;;10.18;4.43;;;;;;;14.36;34.33;94041.06;5003787;28;20037;-75
2024/02/08 12:18:29;;;;;;;7.50;3.83;;;;;;;14.73;33.37;94029.19;5031947;28;20042;-75
2024/02/08 12:20:56;;;;;;;7.40;3.65;;;;;;;14.84;32.92;94025.38;5032425;28;20462;-75
2024/02/08 12:23:30;;;;;;;9.30;3.97;;;;;;;14.92;32.16;94026.13;5014323;28;20573;-75
2024/02/08 12:26:06;;;;;;;10.88;4.03;;;;;;;14.97;31.94;94015.97;5000328;28;20025;-75
2024/02/08 12:28:34;;;;;;;5.97;4.10;;;;;;;15.06;33.40;94027.19;4998841;28;20037;-75
2024/02/08 12:30:59;;;;;;;9.68;4.00;;;;;;;15.14;32.02;94018.50;4998223;28;20124;-75
2024/02/08 12:33:28;;;;;;;9.30;4.13;;;;;;;15.01;32.74;94016.44;4997054;28;20057;-75
2024/02/08 12:35:53;;;;;;;5.75;3.45;;;;;;;14.99;32.05;93994.91;5013956;28;20060;-75
2024/02/08 12:38:21;;;;;;;5.60;3.53;;;;;;;14.96;32.76;94014.34;4997637;28;20411;-75
2024/02/08 12:40:47;;;;;;;6.18;3.75;;;;;;;15.30;31.43;94005.28;4998303;28;20164;-75
2024/02/08 12:43:13;;;;;;;7.85;4.65;;;;;;;15.39;31.28;94003.41;4997806;28;20044;-75
2024/02/08 12:45:39;;;;;;;8.82;3.72;;;;;;;15.29;31.69;93989.75;5013997;28;20025;-75
2024/02/08 12:48:07;;;;;;;8.52;4.53;;;;;;;15.25;31.85;93997.16;5013851;28;20062;-76
2024/02/08 12:50:35;;;;;;;7.18;4.00;;;;;;;15.49;32.41;93993.53;5014374;28;20029;-75
2024/02/08 12:53:00;;;;;;;6.47;2.53;;;;;;;15.54;30.21;93982.50;4997870;28;20037;-75
2024/02/08 12:55:29;;;;;;;5.93;2.33;;;;;;;15.53;29.21;93959.97;5013517;28;20049;-75
2024/02/08 12:57:58;;;;;;;6.05;1.95;;;;;;;15.57;30.44;93980.38;5013817;28;20029;-76
2024/02/08 13:00:27;;;;;;;7.35;1.85;;;;;;;15.68;29.56;93986.16;5013570;28;20039;-75
2024/02/08 13:02:54;;;;;;;5.95;2.00;;;;;;;15.70;29.70;93969.31;5013516;28;20112;-76
2024/02/08 13:05:22;;;;;;;6.20;2.35;;;;;;;15.72;29.29;93974.38;5013943;28;20108;-76
2024/02/08 13:07:58;;;;;;;4.75;1.83;;;;;;;15.90;29.95;93974.84;5031059;28;20412;-75
2024/02/08 13:10:24;;;;;;;4.63;1.73;;;;;;;15.71;30.56;93934.31;4997144;28;20030;-75
2024/02/08 13:13:00;;;;;;;3.13;1.73;;;;;;;15.39;29.22;93941.44;5030973;28;20033;-75
2024/02/08 13:15:25;;;;;;;6.65;1.60;;;;;;;15.65;30.20;93955.91;4997340;28;20030;-75
2024/02/08 13:17:51;;;;;;;4.60;2.42;;;;;;;15.72;29.58;93977.00;4997066;28;20064;-75
2024/02/08 13:20:17;;;;;;;5.63;1.80;;;;;;;15.79;28.65;93962.19;5013285;28;20045;-75
2024/02/08 13:22:45;;;;;;;5.63;1.80;;;;;;;15.87;28.84;93967.34;5031010;28;20432;-76
2024/02/08 13:25:13;;;;;;;5.47;2.72;;;;;;;15.91;29.45;93960.75;5013575;28;20057;-75
2024/02/08 13:27:39;;;;;;;4.95;1.70;;;;;;;16.04;28.72;93957.50;5013771;28;20026;-75
2024/02/08 13:30:15;;;;;;;8.27;2.67;;;;;;;16.02;29.76;93960.31;5013217;28;20033;-75
2024/02/08 13:32:41;;;;;;;6.05;2.17;;;;;;;16.01;30.41;93961.28;5014638;28;20521;-75
2024/02/08 13:35:07;;;;;;;4.68;1.85;;;;;;;15.81;29.41;93944.50;5001073;28;20133;-76
2024/02/08 13:37:35;;;;;;;4.75;1.80;;;;;;;15.97;30.06;93949.56;4974185;28;20114;-75
2024/02/08 13:40:03;;;;;;;4.78;1.98;;;;;;;16.00;30.62;93962.28;4991519;28;20030;-75
2024/02/08 13:42:31;;;;;;;7.63;1.70;;;;;;;15.70;29.26;93942.31;4990264;28;20058;-75
2024/02/08 13:45:01;;;;;;;4.28;1.83;;;;;;;15.90;30.25;93955.69;4992289;28;20065;-75
2024/02/08 13:47:27;;;;;;;5.57;2.25;;;;;;;15.88;30.32;93961.13;4963135;28;20113;-75